Time;durP1;ratioP1;P1;durP2;ratioP2;P2;SDS_P1;SDS_P2;PMS_P1;PMS_P2;Temp;Humidity;BMP_temperature;BMP_pressure;BME280_temperature;BME280_humidity;BME280_pressure;Samples;Min_cycle;Max_cycle;Signal;HPM_P1;HPM_P2
2022/09/17 00:01:07;;;;;;;7.77;1.43;;;12.00;99.90;;;;;;5029194;28;20222;-52
2022/09/17 00:03:34;;;;;;;6.23;1.10;;;11.90;99.90;;;;;;5026950;28;20290;-53
2022/09/17 00:06:06;;;;;;;5.83;1.03;;;12.00;99.90;;;;;;5028818;28;20219;-53
2022/09/17 00:08:35;;;;;;;6.90;1.20;;;12.10;99.90;;;;;;5025194;28;20677;-54
2022/09/17 00:11:20;;;;;;;5.93;1.17;;;12.10;99.90;;;;;;5029629;28;20192;-53
2022/09/17 00:13:48;;;;;;;5.97;1.10;;;12.10;99.90;;;;;;5028818;28;20199;-52
2022/09/17 00:16:23;;;;;;;11.70;1.20;;;12.10;99.90;;;;;;5027283;28;20203;-52
2022/09/17 00:18:51;;;;;;;6.77;1.20;;;12.10;99.90;;;;;;5031522;28;20720;-53
2022/09/17 00:21:18;;;;;;;5.53;1.00;;;12.10;99.90;;;;;;5033614;28;20207;-52
2022/09/17 00:23:46;;;;;;;5.10;1.50;;;12.20;99.90;;;;;;5032618;28;20193;-53
2022/09/17 00:26:13;;;;;;;7.60;1.43;;;12.20;99.90;;;;;;5034201;28;20786;-53
2022/09/17 00:28:44;;;;;;;10.30;1.50;;;12.10;99.90;;;;;;5032137;28;20299;-53
2022/09/17 00:31:11;;;;;;;5.60;0.97;;;12.20;99.90;;;;;;5032601;28;20204;-53
2022/09/17 00:33:38;;;;;;;4.50;1.20;;;12.20;99.90;;;;;;5033396;28;20204;-53
2022/09/17 00:36:05;;;;;;;5.53;1.60;;;12.20;99.90;;;;;;5033874;28;20202;-53
2022/09/17 00:38:33;;;;;;;4.53;1.27;;;12.20;99.90;;;;;;5033114;28;20261;-53
2022/09/17 00:41:01;;;;;;;7.07;1.03;;;12.20;99.90;;;;;;5034001;28;20226;-53
2022/09/17 00:43:52;;;;;;;6.23;1.47;;;12.20;99.90;;;;;;5032525;28;20212;-53
2022/09/17 00:46:31;;;;;;;6.20;1.40;;;12.20;99.90;;;;;;5040346;28;20227;-53
2022/09/17 00:49:04;;;;;;;5.23;1.10;;;12.30;99.90;;;;;;5026572;28;20194;-53
2022/09/17 00:51:38;;;;;;;6.70;1.10;;;12.20;99.90;;;;;;5022969;28;20202;-53
2022/09/17 00:54:08;;;;;;;5.87;1.40;;;12.20;99.90;;;;;;5029422;28;20239;-53
2022/09/17 00:56:38;;;;;;;8.77;1.10;;;12.30;99.90;;;;;;5026726;28;20765;-55
2022/09/17 00:59:06;;;;;;;8.77;1.67;;;12.20;99.90;;;;;;5022768;28;20289;-52
2022/09/17 01:01:33;;;;;;;7.60;1.00;;;12.10;99.90;;;;;;5024165;28;20224;-53
2022/09/17 01:04:01;;;;;;;6.43;1.17;;;12.20;99.90;;;;;;5027764;28;20682;-53
2022/09/17 01:06:45;;;;;;;7.97;1.60;;;12.20;99.90;;;;;;5026559;28;20246;-53
2022/09/17 01:09:29;;;;;;;11.70;1.60;;;12.10;99.90;;;;;;5025854;28;20871;-53
2022/09/17 01:12:29;;;;;;;8.53;1.13;;;12.00;99.90;;;;;;5025320;28;20252;-53
2022/09/17 01:15:24;;;;;;;4.83;1.33;;;12.10;99.90;;;;;;5028141;28;20708;-53
2022/09/17 01:18:00;;;;;;;6.47;1.27;;;12.10;99.90;;;;;;5024741;28;20201;-52
2022/09/17 01:20:57;;;;;;;7.67;1.30;;;12.10;99.90;;;;;;5026056;28;20214;-53
2022/09/17 01:23:56;;;;;;;9.37;1.23;;;12.20;99.90;;;;;;5027345;28;20698;-52
2022/09/17 01:26:34;;;;;;;5.63;1.53;;;12.10;99.90;;;;;;5021056;28;20306;-53
2022/09/17 01:29:19;;;;;;;4.13;0.90;;;12.10;99.90;;;;;;5027521;28;20199;-53
2022/09/17 01:31:53;;;;;;;5.77;0.90;;;12.00;99.90;;;;;;5025869;28;20914;-53
2022/09/17 01:35:09;;;;;;;7.50;1.33;;;12.00;99.90;;;;;;5024963;28;20207;-53
2022/09/17 01:38:01;;;;;;;3.67;0.90;;;12.10;99.90;;;;;;5025081;28;20204;-52
2022/09/17 01:41:06;;;;;;;6.70;1.10;;;12.20;99.90;;;;;;5024248;28;20199;-53
2022/09/17 01:43:37;;;;;;;4.63;1.10;;;12.20;21.80;;;;;;5025569;28;20204;-54
2022/09/17 01:46:19;;;;;;;3.17;0.90;;;12.20;28.90;;;;;;5027515;28;20227;-53
2022/09/17 01:48:50;;;;;;;4.63;1.27;;;12.20;68.00;;;;;;5030266;28;20208;-53
2022/09/17 01:51:24;;;;;;;6.63;1.10;;;12.10;96.80;;;;;;5031193;28;20258;-53
2022/09/17 01:53:56;;;;;;;8.47;1.03;;;12.10;99.90;;;;;;5022178;28;20225;-53
2022/09/17 01:56:28;;;;;;;5.03;1.37;;;12.20;99.90;;;;;;5019720;28;20201;-53
2022/09/17 01:59:06;;;;;;;4.77;1.33;;;12.20;99.90;;;;;;5020946;28;20207;-53
2022/09/17 02:01:37;;;;;;;5.57;1.03;;;12.10;99.90;;;;;;5023833;28;20333;-52
2022/09/17 02:04:16;;;;;;;4.77;0.80;;;12.10;99.90;;;;;;5021680;28;20227;-53
2022/09/17 02:06:48;;;;;;;4.20;0.87;;;12.10;99.90;;;;;;5018811;28;20236;-53
2022/09/17 02:09:28;;;;;;;9.17;1.37;;;12.10;99.90;;;;;;5023576;28;20198;-53
2022/09/17 02:12:00;;;;;;;8.87;1.00;;;12.00;99.90;;;;;;5023085;28;20605;-53
2022/09/17 02:14:34;;;;;;;4.57;1.23;;;12.00;99.90;;;;;;5019834;28;20230;-53
2022/09/17 02:17:29;;;;;;;5.17;1.37;;;12.00;99.90;;;;;;5023206;28;20309;-53
2022/09/17 02:19:56;;;;;;;7.17;1.43;;;12.00;99.90;;;;;;5021883;28;20277;-54
2022/09/17 02:22:34;;;;;;;7.33;1.20;;;11.90;99.90;;;;;;5021840;28;20654;-53
2022/09/17 02:25:07;;;;;;;4.93;0.90;;;11.90;99.90;;;;;;5016620;28;20202;-54
2022/09/17 02:27:47;;;;;;;5.23;1.10;;;11.90;99.90;;;;;;5019247;28;20713;-53
2022/09/17 02:30:14;;;;;;;4.57;0.83;;;12.00;99.90;;;;;;5020347;28;20210;-52
2022/09/17 02:32:41;;;;;;;5.43;0.67;;;12.00;99.90;;;;;;5016091;28;20249;-53
2022/09/17 02:35:12;;;;;;;8.13;1.10;;;12.10;99.90;;;;;;5020625;28;20206;-53
2022/09/17 02:37:43;;;;;;;10.57;1.30;;;12.10;95.50;;;;;;5020405;28;21215;-52
2022/09/17 02:40:14;;;;;;;6.17;0.80;;;12.20;82.00;;;;;;5014961;28;20677;-53
2022/09/17 02:42:56;;;;;;;4.53;1.17;;;12.20;39.80;;;;;;5018210;28;20207;-53
2022/09/17 02:45:34;;;;;;;6.20;1.07;;;12.30;8.00;;;;;;5020251;28;20211;-53
2022/09/17 02:48:08;;;;;;;5.73;0.83;;;12.30;1.00;;;;;;5020814;28;20194;-53
2022/09/17 02:50:53;;;;;;;10.50;0.90;;;12.20;1.00;;;;;;5021758;28;20206;-53
2022/09/17 02:53:44;;;;;;;7.70;1.13;;;12.10;1.00;;;;;;5020121;28;20283;-53
2022/09/17 02:56:56;;;;;;;7.30;1.57;;;12.20;1.00;;;;;;5019631;28;21683;-52
2022/09/17 02:59:41;;;;;;;5.33;1.20;;;12.10;1.00;;;;;;4939758;28;20645;-55
2022/09/17 03:02:18;;;;;;;3.33;0.87;;;12.20;1.00;;;;;;4937221;28;20264;-54
2022/09/17 03:04:48;;;;;;;9.83;1.10;;;12.20;1.00;;;;;;4998067;28;20244;-52
2022/09/17 03:07:17;;;;;;;7.37;1.43;;;12.20;99.90;;;;;;5022492;28;20214;-55
2022/09/17 03:09:45;;;;;;;3.67;1.00;;;12.30;1.00;;;;;;5025001;28;20207;-53
2022/09/17 03:12:12;;;;;;;2.27;0.60;;;12.20;13.70;;;;;;5019733;28;20606;-54
2022/09/17 03:14:38;;;;;;;4.83;0.77;;;12.10;1.00;;;;;;5023869;28;20285;-53
2022/09/17 03:17:05;;;;;;;5.67;1.17;;;12.10;1.00;;;;;;5023890;28;20215;-52
2022/09/17 03:19:32;;;;;;;7.70;2.03;;;12.20;1.00;;;;;;5023433;28;20211;-52
2022/09/17 03:21:59;;;;;;;4.03;0.80;;;12.20;1.00;;;;;;5022166;28;20227;-56
2022/09/17 03:24:26;;;;;;;4.47;0.73;;;12.20;99.90;;;;;;5021403;28;20456;-52
2022/09/17 03:26:52;;;;;;;6.10;1.00;;;12.20;1.00;;;;;;5019836;28;20302;-53
2022/09/17 03:29:19;;;;;;;5.50;1.37;;;12.10;1.00;;;;;;5019869;28;20197;-52
2022/09/17 03:31:46;;;;;;;7.53;0.90;;;12.00;1.00;;;;;;5020907;28;20642;-52
2022/09/17 03:34:13;;;;;;;8.93;1.53;;;12.00;1.00;;;;;;5022307;28;20703;-52
2022/09/17 03:36:40;;;;;;;6.90;1.00;;;12.00;1.00;;;;;;5019400;28;21360;-52
2022/09/17 03:39:07;;;;;;;4.33;0.90;;;11.90;1.00;;;;;;5016635;28;20231;-52
2022/09/17 03:41:34;;;;;;;5.80;0.80;;;11.90;1.00;;;;;;5021573;28;20297;-52
2022/09/17 03:44:01;;;;;;;3.20;0.77;;;11.90;1.00;;;;;;5020739;28;20198;-52
2022/09/17 03:46:28;;;;;;;7.27;1.20;;;12.00;1.00;;;;;;5022555;28;20272;-53
2022/09/17 03:48:55;;;;;;;8.60;1.17;;;11.90;1.00;;;;;;5022231;28;20197;-52
2022/09/17 03:51:22;;;;;;;3.87;0.87;;;11.90;1.00;;;;;;5022526;28;20507;-53
2022/09/17 03:53:48;;;;;;;4.17;1.03;;;11.90;1.00;;;;;;5022042;28;20200;-52
2022/09/17 03:56:16;;;;;;;6.20;1.33;;;11.90;1.00;;;;;;5024258;28;20206;-52
2022/09/17 03:58:43;;;;;;;6.10;1.27;;;11.90;1.00;;;;;;5025402;28;20297;-52
2022/09/17 04:01:10;;;;;;;6.87;1.20;;;12.00;99.90;;;;;;5021469;28;20323;-52
2022/09/17 04:03:38;;;;;;;7.30;1.47;;;11.90;99.90;;;;;;5022957;28;20641;-53
2022/09/17 04:06:05;;;;;;;6.63;1.10;;;11.90;99.90;;;;;;5022661;28;20787;-52
2022/09/17 04:08:32;;;;;;;8.83;1.40;;;11.80;99.90;;;;;;5021318;28;20206;-53
2022/09/17 04:10:59;;;;;;;4.80;0.90;;;11.90;1.00;;;;;;5024640;28;20217;-53
2022/09/17 04:13:26;;;;;;;6.80;0.80;;;11.80;99.90;;;;;;5028899;28;20292;-53
2022/09/17 04:15:53;;;;;;;9.90;1.60;;;11.80;1.00;;;;;;5025330;28;20647;-53
2022/09/17 04:18:19;;;;;;;5.50;0.90;;;11.80;1.00;;;;;;5025521;28;20596;-56
2022/09/17 04:20:46;;;;;;;9.10;0.90;;;11.80;1.00;;;;;;5030651;28;20293;-53
2022/09/17 04:23:13;;;;;;;3.70;0.70;;;11.80;1.00;;;;;;5033434;28;20286;-53
2022/09/17 04:25:40;;;;;;;5.63;1.13;;;11.80;1.00;;;;;;5032793;28;20209;-53
2022/09/17 04:28:07;;;;;;;7.50;1.17;;;11.90;1.00;;;;;;5032705;28;20226;-53
2022/09/17 04:30:34;;;;;;;6.43;0.97;;;11.90;1.00;;;;;;5034510;28;20207;-53
2022/09/17 04:33:01;;;;;;;5.67;1.67;;;11.70;1.00;;;;;;5030115;28;21386;-53
2022/09/17 04:35:28;;;;;;;3.53;0.90;;;11.60;1.00;;;;;;5027873;28;20222;-53
2022/09/17 04:37:56;;;;;;;6.67;1.03;;;11.60;1.00;;;;;;5027364;28;20208;-52
2022/09/17 04:40:24;;;;;;;5.47;1.30;;;11.60;38.90;;;;;;5028615;28;20233;-53
2022/09/17 04:42:53;;;;;;;3.70;0.90;;;11.70;41.60;;;;;;5028517;28;20642;-52
2022/09/17 04:45:20;;;;;;;2.80;0.80;;;11.70;30.00;;;;;;5028447;28;20718;-53
2022/09/17 04:47:47;;;;;;;6.77;1.97;;;11.70;55.80;;;;;;5028008;28;20281;-53
2022/09/17 04:50:14;;;;;;;8.93;2.20;;;11.60;1.00;;;;;;5029043;28;20667;-51
2022/09/17 04:52:44;;;;;;;4.90;1.03;;;11.50;66.90;;;;;;5028642;28;20202;-53
2022/09/17 04:55:12;;;;;;;4.30;0.90;;;11.50;66.00;;;;;;5027547;28;20199;-53
2022/09/17 04:57:44;;;;;;;4.33;0.77;;;11.70;90.30;;;;;;5027674;28;20215;-52
2022/09/17 05:00:11;;;;;;;6.80;0.87;;;11.60;38.90;;;;;;5042673;28;20565;-53
2022/09/17 05:02:38;;;;;;;3.47;0.73;;;11.40;1.00;;;;;;5028660;28;20233;-55
2022/09/17 05:05:05;;;;;;;5.77;1.00;;;11.50;1.00;;;;;;5009015;28;20569;-51
2022/09/17 05:07:32;;;;;;;4.97;0.90;;;11.50;91.50;;;;;;5026781;28;20254;-54
2022/09/17 05:09:59;;;;;;;5.87;1.10;;;11.50;1.00;;;;;;5025234;28;20195;-53
2022/09/17 05:12:25;;;;;;;8.40;1.67;;;11.50;1.00;;;;;;5021781;28;20197;-53
2022/09/17 05:14:56;;;;;;;4.10;1.10;;;11.40;1.00;;;;;;5030794;28;20607;-53
2022/09/17 05:17:23;;;;;;;6.23;1.17;;;11.40;1.00;;;;;;5027938;28;20626;-53
2022/09/17 05:19:52;;;;;;;3.37;0.90;;;11.30;1.00;;;;;;5029574;28;20215;-53
2022/09/17 05:22:19;;;;;;;4.40;1.20;;;11.30;4.10;;;;;;5028093;28;20250;-53
2022/09/17 05:24:47;;;;;;;4.97;1.10;;;11.40;99.90;;;;;;5022550;28;20201;-53
2022/09/17 05:27:14;;;;;;;9.17;1.10;;;11.30;47.60;;;;;;5021584;28;20402;-53
2022/09/17 05:29:41;;;;;;;4.40;0.70;;;11.40;99.90;;;;;;5018704;28;20284;-53
2022/09/17 05:32:08;;;;;;;5.70;1.33;;;11.40;99.90;;;;;;5026278;28;20226;-53
2022/09/17 05:34:34;;;;;;;6.83;1.20;;;11.30;1.90;;;;;;5022824;28;20489;-53
2022/09/17 05:37:01;;;;;;;6.80;1.30;;;11.30;72.10;;;;;;5022637;28;20685;-53
2022/09/17 05:39:28;;;;;;;5.80;0.90;;;11.10;1.00;;;;;;5024150;28;20694;-52
2022/09/17 05:41:55;;;;;;;6.23;0.97;;;11.10;25.30;;;;;;5024786;28;20814;-53
2022/09/17 05:44:22;;;;;;;6.60;1.00;;;11.20;92.00;;;;;;5026046;28;20649;-53
2022/09/17 05:46:52;;;;;;;1.97;0.77;;;11.20;1.00;;;;;;5026658;28;20328;-54
2022/09/17 05:49:19;;;;;;;7.10;0.90;;;11.20;1.00;;;;;;5024923;28;20300;-53
2022/09/17 05:51:48;;;;;;;4.80;1.07;;;11.40;74.40;;;;;;5026136;28;20672;-52
2022/09/17 05:54:15;;;;;;;5.20;0.80;;;11.20;1.00;;;;;;5024403;28;20240;-53
2022/09/17 05:56:42;;;;;;;5.03;0.80;;;11.30;1.00;;;;;;5028479;28;20206;-51
2022/09/17 05:59:08;;;;;;;3.90;0.83;;;11.40;1.00;;;;;;5025369;28;20575;-53
2022/09/17 06:01:35;;;;;;;2.07;0.80;;;11.50;1.00;;;;;;5018476;28;20230;-53
2022/09/17 06:04:03;;;;;;;3.90;0.70;;;11.50;1.00;;;;;;5026776;28;20636;-52
2022/09/17 06:06:30;;;;;;;3.90;0.90;;;11.60;99.90;;;;;;5024424;28;20629;-53
2022/09/17 06:08:59;;;;;;;6.20;0.77;;;11.60;1.00;;;;;;5024351;28;20678;-53
2022/09/17 06:11:27;;;;;;;1.93;0.83;;;11.80;99.90;;;;;;5025997;28;20190;-53
2022/09/17 06:13:54;;;;;;;1.33;0.37;;;11.80;97.70;;;;;;5025540;28;20198;-52
2022/09/17 06:16:22;;;;;;;1.07;0.23;;;11.80;99.90;;;;;;5024875;28;20195;-52
2022/09/17 06:18:51;;;;;;;1.80;0.30;;;11.80;61.40;;;;;;5022647;28;20211;-53
2022/09/17 06:21:20;;;;;;;2.83;0.23;;;11.80;1.00;;;;;;5023812;28;20606;-53
2022/09/17 06:23:48;;;;;;;0.60;0.20;;;11.80;1.00;;;;;;5023159;28;20199;-53
2022/09/17 06:26:15;;;;;;;4.27;0.60;;;11.80;1.00;;;;;;5023951;28;20201;-53
2022/09/17 06:28:43;;;;;;;2.03;0.33;;;11.80;1.00;;;;;;5025200;28;20213;-53
2022/09/17 06:31:12;;;;;;;2.37;0.43;;;11.90;99.90;;;;;;5024557;28;20202;-53
2022/09/17 06:33:42;;;;;;;3.03;0.20;;;11.90;1.00;;;;;;5022408;28;20242;-53
2022/09/17 06:36:11;;;;;;;2.77;0.50;;;11.90;1.00;;;;;;5022026;28;20254;-53
2022/09/17 06:38:40;;;;;;;1.40;0.40;;;11.90;1.00;;;;;;5020566;28;20260;-53
2022/09/17 06:41:07;;;;;;;1.20;0.40;;;11.90;1.00;;;;;;5022187;28;20198;-53
2022/09/17 06:43:34;;;;;;;1.47;0.53;;;11.80;1.00;;;;;;5022835;28;20206;-52
2022/09/17 06:46:04;;;;;;;2.03;0.40;;;11.70;1.00;;;;;;5022345;28;20256;-52
2022/09/17 06:48:34;;;;;;;2.37;0.30;;;11.80;1.00;;;;;;5018050;28;20217;-55
2022/09/17 06:51:03;;;;;;;2.93;1.23;;;11.80;1.00;;;;;;4664887;28;10000041;-58
2022/09/17 06:53:30;;;;;;;1.80;0.67;;;11.80;99.90;;;;;;5010685;28;20197;-54
2022/09/17 06:55:58;;;;;;;2.40;0.30;;;11.90;99.90;;;;;;5021285;28;20515;-52
2022/09/17 06:58:32;;;;;;;1.57;0.50;;;12.10;1.00;;;;;;5018216;28;20410;-53
2022/09/17 07:01:00;;;;;;;2.73;0.60;;;12.10;99.90;;;;;;5019956;28;20686;-53
2022/09/17 07:03:28;;;;;;;3.00;0.70;;;12.00;1.00;;;;;;5021396;28;20559;-53
2022/09/17 07:05:55;;;;;;;3.90;0.47;;;12.00;1.00;;;;;;5019566;28;20196;-52
2022/09/17 07:08:22;;;;;;;3.57;0.80;;;12.10;1.00;;;;;;5015856;28;20216;-53
2022/09/17 07:10:49;;;;;;;2.20;0.40;;;12.30;1.00;;;;;;5019101;28;20728;-52
2022/09/17 07:13:16;;;;;;;2.30;0.60;;;12.40;13.10;;;;;;5019298;28;20760;-53
2022/09/17 07:15:50;;;;;;;2.23;0.47;;;12.40;99.90;;;;;;5020847;28;20195;-55
2022/09/17 07:18:17;;;;;;;1.57;0.53;;;12.40;1.00;;;;;;5017577;28;20216;-53
2022/09/17 07:20:50;;;;;;;2.27;0.50;;;12.40;1.00;;;;;;5020763;28;20318;-52
2022/09/17 07:23:17;;;;;;;1.43;0.40;;;12.50;99.90;;;;;;5015476;28;20352;-52
2022/09/17 07:25:49;;;;;;;5.50;0.60;;;12.60;1.00;;;;;;5014077;28;20199;-53
2022/09/17 07:28:16;;;;;;;6.37;0.97;;;12.60;1.00;;;;;;5015376;28;20219;-53
2022/09/17 07:30:43;;;;;;;2.60;0.70;;;12.60;1.00;;;;;;5014959;28;20687;-57
2022/09/17 07:33:10;;;;;;;2.67;0.77;;;12.80;1.00;;;;;;5015704;28;20200;-53
2022/09/17 07:35:37;;;;;;;4.90;0.87;;;12.90;1.00;;;;;;5029063;28;20297;-52
2022/09/17 07:38:03;;;;;;;4.23;0.50;;;13.00;1.00;;;;;;5016621;28;20207;-51
2022/09/17 07:40:30;;;;;;;5.33;1.00;;;13.00;9.50;;;;;;5017809;28;20200;-52
2022/09/17 07:42:57;;;;;;;3.10;0.60;;;13.10;1.00;;;;;;5018849;28;20208;-53
2022/09/17 07:45:24;;;;;;;2.53;0.50;;;13.10;99.90;;;;;;5018740;28;20239;-53
2022/09/17 07:47:51;;;;;;;4.63;0.70;;;13.10;1.00;;;;;;5015445;28;20226;-54
2022/09/17 07:50:17;;;;;;;1.93;0.40;;;13.20;1.00;;;;;;5017307;28;20204;-53
2022/09/17 07:52:46;;;;;;;1.57;0.73;;;13.40;99.90;;;;;;5016383;28;20641;-53
2022/09/17 07:55:14;;;;;;;4.13;0.70;;;13.40;1.00;;;;;;5015441;28;20356;-53
2022/09/17 07:57:40;;;;;;;3.53;0.73;;;13.30;1.00;;;;;;5022066;28;20205;-53
2022/09/17 08:00:08;;;;;;;2.73;0.63;;;13.50;1.00;;;;;;5018456;28;20290;-52
2022/09/17 08:02:35;;;;;;;2.57;0.30;;;13.60;1.00;;;;;;5020063;28;20232;-52
2022/09/17 08:05:02;;;;;;;7.60;0.60;;;13.80;99.90;;;;;;5019197;28;20233;-53
2022/09/17 08:07:29;;;;;;;3.70;0.53;;;13.70;1.00;;;;;;5020122;28;20649;-53
2022/09/17 08:09:56;;;;;;;6.37;1.00;;;13.80;1.00;;;;;;5017769;28;20195;-52
2022/09/17 08:12:22;;;;;;;3.53;0.70;;;13.90;1.00;;;;;;5023537;28;20667;-52
2022/09/17 08:14:50;;;;;;;2.50;1.00;;;14.10;1.00;;;;;;5023388;28;20246;-53
2022/09/17 08:17:16;;;;;;;3.13;0.43;;;14.00;99.90;;;;;;5024162;28;20193;-52
2022/09/17 08:19:43;;;;;;;3.63;0.80;;;14.10;99.90;;;;;;5025255;28;20200;-53
2022/09/17 08:22:10;;;;;;;2.83;0.97;;;14.20;99.90;;;;;;5017395;28;20204;-52
2022/09/17 08:24:37;;;;;;;5.27;0.90;;;14.30;1.00;;;;;;5020077;28;20654;-53
2022/09/17 08:27:04;;;;;;;5.13;0.60;;;14.40;1.00;;;;;;5020473;28;20200;-53
2022/09/17 08:29:31;;;;;;;5.30;0.97;;;14.60;1.00;;;;;;5021899;28;20215;-53
2022/09/17 08:32:01;;;;;;;2.73;0.70;;;15.10;1.00;;;;;;5029370;28;20781;-53
2022/09/17 08:34:28;;;;;;;3.00;1.00;;;15.40;1.00;;;;;;5026754;28;20259;-53
2022/09/17 08:36:55;;;;;;;3.23;0.77;;;15.50;69.80;;;;;;5019690;28;20203;-53
2022/09/17 08:39:22;;;;;;;4.27;0.80;;;15.40;99.90;;;;;;5028884;28;20192;-53
2022/09/17 08:41:56;;;;;;;3.33;1.07;;;15.30;99.90;;;;;;5027952;28;20216;-53
2022/09/17 08:44:32;;;;;;;2.80;0.67;;;15.30;1.00;;;;;;5027466;28;20843;-52
2022/09/17 08:47:02;;;;;;;3.83;0.80;;;15.00;99.90;;;;;;5027078;28;20201;-53
2022/09/17 08:49:58;;;;;;;4.00;1.73;;;14.70;1.00;;;;;;5022665;28;20197;-52
2022/09/17 08:53:01;;;;;;;4.37;0.90;;;14.40;1.00;;;;;;5028562;28;20212;-54
2022/09/17 08:55:53;;;;;;;2.73;0.57;;;14.00;1.00;;;;;;5026544;28;20216;-52
2022/09/17 08:58:32;;;;;;;3.27;0.70;;;13.70;51.40;;;;;;5022942;28;20241;-52
2022/09/17 09:01:11;;;;;;;2.33;0.40;;;13.50;99.90;;;;;;5026689;28;20283;-53
2022/09/17 09:03:54;;;;;;;2.20;0.50;;;13.50;99.90;;;;;;5028380;28;20664;-51
2022/09/17 09:06:28;;;;;;;3.03;0.50;;;13.50;96.80;;;;;;5028130;28;20254;-53
2022/09/17 09:09:13;;;;;;;4.13;0.60;;;13.90;99.90;;;;;;5028678;28;20214;-53
2022/09/17 09:11:41;;;;;;;1.20;0.30;;;14.40;99.90;;;;;;5030714;28;20653;-53
2022/09/17 09:14:30;;;;;;;1.80;0.40;;;14.60;1.00;;;;;;5030387;28;20199;-53
2022/09/17 09:16:59;;;;;;;4.07;1.13;;;14.90;99.90;;;;;;5031071;28;20198;-58
2022/09/17 09:22:56;;;;;;;3.57;0.77;;;14.90;99.90;;;;;;4997707;28;20722;-52
2022/09/17 09:26:08;;;;;;;1.83;0.67;;;14.60;1.00;;;;;;5025853;28;20212;-53
2022/09/17 09:29:05;;;;;;;2.03;0.93;;;14.30;1.00;;;;;;4942902;28;21268;-53
2022/09/17 09:31:54;;;;;;;1.53;0.40;;;14.60;1.00;;;;;;5012086;28;20206;-53
2022/09/17 09:34:22;;;;;;;3.63;0.50;;;14.70;99.90;;;;;;5019544;28;20298;-54
2022/09/17 09:37:07;;;;;;;1.67;0.50;;;14.90;1.00;;;;;;5019881;28;20197;-53
2022/09/17 09:39:42;;;;;;;1.93;0.50;;;15.20;99.90;;;;;;5021161;28;20201;-53
2022/09/17 09:42:32;;;;;;;1.50;0.40;;;15.10;1.00;;;;;;5034766;28;20238;-52
2022/09/17 09:45:05;;;;;;;2.73;0.60;;;15.00;1.00;;;;;;5020367;28;20209;-52
2022/09/17 09:47:56;;;;;;;4.20;0.60;;;15.10;1.00;;;;;;5023889;28;20231;-53
2022/09/17 09:50:35;;;;;;;3.13;0.73;;;15.10;99.90;;;;;;5020832;28;20326;-53
2022/09/17 09:54:04;;;;;;;3.27;0.70;;;14.90;99.90;;;;;;5016695;28;20572;-51
2022/09/17 09:56:50;;;;;;;5.27;0.50;;;14.70;99.90;;;;;;5023357;28;20559;-51
2022/09/17 09:59:19;;;;;;;1.03;0.53;;;14.60;99.90;;;;;;5020678;28;20611;-52
2022/09/17 10:01:52;;;;;;;3.23;0.50;;;14.70;99.90;;;;;;5021516;28;20222;-53
2022/09/17 10:04:25;;;;;;;2.73;0.50;;;14.70;78.80;;;;;;5026410;28;20229;-53
2022/09/17 10:07:01;;;;;;;6.20;0.90;;;14.70;2.60;;;;;;5024302;28;20261;-53
2022/09/17 10:09:31;;;;;;;4.37;0.50;;;14.70;99.90;;;;;;5025207;28;20710;-53
2022/09/17 10:12:09;;;;;;;2.30;0.70;;;14.80;1.00;;;;;;5022800;28;20387;-53
2022/09/17 10:14:52;;;;;;;2.60;0.40;;;14.60;1.00;;;;;;5021261;28;20806;-54
2022/09/17 10:17:38;;;;;;;2.80;0.50;;;14.70;1.00;;;;;;5024517;28;20285;-53
2022/09/17 10:20:29;;;;;;;6.20;0.80;;;14.80;1.00;;;;;;5024743;28;20205;-53
2022/09/17 10:23:05;;;;;;;1.53;0.50;;;14.80;99.90;;;;;;5024217;28;20206;-52
2022/09/17 10:25:52;;;;;;;2.40;0.50;;;14.70;1.00;;;;;;5037745;28;20241;-53
2022/09/17 10:28:45;;;;;;;2.53;0.50;;;14.80;1.00;;;;;;5023907;28;20304;-52
2022/09/17 10:31:15;;;;;;;1.53;0.40;;;14.40;1.00;;;;;;5023841;28;20573;-53
2022/09/17 10:33:54;;;;;;;5.73;1.70;;;14.60;1.00;;;;;;5043780;28;20210;-53
2022/09/17 10:36:40;;;;;;;4.83;0.50;;;14.60;1.00;;;;;;5021646;28;20619;-53
2022/09/17 10:39:25;;;;;;;1.10;0.43;;;14.70;1.00;;;;;;5025026;28;20255;-54
2022/09/17 10:41:57;;;;;;;1.07;0.20;;;14.80;1.00;;;;;;5020307;28;20203;-55
2022/09/17 10:44:27;;;;;;;2.07;0.77;;;14.90;99.90;;;;;;5024900;28;20227;-54
2022/09/17 10:47:21;;;;;;;4.80;0.60;;;14.80;1.00;;;;;;5007338;28;20262;-51
2022/09/17 10:50:02;;;;;;;4.63;0.60;;;14.70;99.90;;;;;;5023803;28;20232;-53
2022/09/17 10:52:34;;;;;;;2.63;0.50;;;14.90;1.00;;;;;;5021615;28;20189;-53
2022/09/17 10:55:20;;;;;;;2.17;0.50;;;15.20;99.90;;;;;;5022236;28;20581;-53
2022/09/17 10:57:59;;;;;;;1.90;0.50;;;15.40;99.90;;;;;;5017436;28;20229;-51
2022/09/17 11:00:33;;;;;;;2.67;0.60;;;15.10;1.00;;;;;;5021763;28;20231;-58
2022/09/17 11:03:08;;;;;;;5.13;1.57;;;15.10;1.00;;;;;;5036227;28;20207;-55
2022/09/17 11:05:50;;;;;;;1.53;0.50;;;15.20;1.00;;;;;;5024189;28;20236;-54
2022/09/17 11:09:08;;;;;;;2.23;0.73;;;15.30;1.00;;;;;;5023449;28;20215;-54
2022/09/17 11:11:35;;;;;;;1.93;0.60;;;15.50;1.00;;;;;;5000712;28;20986;-55
2022/09/17 11:14:32;;;;;;;5.93;0.70;;;15.80;1.00;;;;;;5010072;28;20203;-53
2022/09/17 11:17:29;;;;;;;3.33;0.30;;;16.00;1.00;;;;;;4998537;28;20578;-55
2022/09/17 11:20:14;;;;;;;2.43;0.57;;;15.70;1.00;;;;;;4995962;28;21452;-53
2022/09/17 11:23:01;;;;;;;3.13;0.70;;;15.70;1.00;;;;;;5007258;28;20227;-53
2022/09/17 11:25:30;;;;;;;4.30;0.77;;;16.00;1.00;;;;;;5003945;28;20725;-54
2022/09/17 11:28:07;;;;;;;5.77;0.77;;;15.90;1.00;;;;;;5002528;28;20320;-54
2022/09/17 11:30:54;;;;;;;6.33;0.90;;;15.90;1.00;;;;;;5010099;28;20310;-54
2022/09/17 11:34:02;;;;;;;3.63;0.50;;;16.10;1.00;;;;;;5003333;28;20236;-55
2022/09/17 11:36:44;;;;;;;2.63;0.50;;;16.00;1.00;;;;;;4966080;28;20211;-54
2022/09/17 11:39:35;;;;;;;3.13;0.80;;;16.10;1.00;;;;;;5004738;28;20230;-54
2022/09/17 11:42:16;;;;;;;2.47;0.60;;;16.40;1.00;;;;;;5011313;28;20208;-53
2022/09/17 11:45:19;;;;;;;5.70;1.10;;;16.50;1.00;;;;;;5015133;28;20271;-54
2022/09/17 11:48:02;;;;;;;4.73;0.90;;;16.60;1.00;;;;;;5005890;28;20204;-54
2022/09/17 11:50:41;;;;;;;2.97;0.70;;;17.20;1.00;;;;;;5020037;28;20218;-52
2022/09/17 11:53:15;;;;;;;2.20;0.70;;;16.80;1.00;;;;;;5020082;28;20204;-53
2022/09/17 11:55:49;;;;;;;2.17;0.90;;;17.00;1.00;;;;;;5019714;28;20293;-52
2022/09/17 11:58:39;;;;;;;4.03;1.00;;;16.40;1.00;;;;;;5024424;28;20693;-52
2022/09/17 12:01:20;;;;;;;6.13;1.10;;;16.40;1.00;;;;;;5026781;28;20253;-52
2022/09/17 12:04:08;;;;;;;3.67;0.90;;;16.10;99.90;;;;;;5025351;28;20199;-52
2022/09/17 12:06:45;;;;;;;5.60;0.90;;;15.90;99.90;;;;;;5021450;28;20211;-51
2022/09/17 12:09:24;;;;;;;3.47;0.97;;;15.80;97.50;;;;;;5025226;28;20214;-51
2022/09/17 12:12:04;;;;;;;9.07;1.53;;;16.30;99.90;;;;;;5025921;28;20231;-52
2022/09/17 12:14:57;;;;;;;6.60;0.97;;;16.80;99.90;;;;;;5022271;28;20207;-52
2022/09/17 12:17:32;;;;;;;3.17;0.87;;;17.00;1.00;;;;;;5021955;28;20323;-54
2022/09/17 12:20:08;;;;;;;5.40;1.00;;;17.30;99.90;;;;;;5022132;28;20205;-53
2022/09/17 12:22:40;;;;;;;8.73;1.27;;;17.10;1.00;;;;;;5028183;28;20207;-53
2022/09/17 12:25:11;;;;;;;9.37;1.30;;;17.30;1.00;;;;;;5029529;28;20603;-54
2022/09/17 12:27:55;;;;;;;4.67;0.97;;;17.20;99.90;;;;;;5022649;28;20627;-53
2022/09/17 12:30:27;;;;;;;7.80;1.10;;;17.50;99.90;;;;;;5022971;28;20204;-54
2022/09/17 12:32:57;;;;;;;4.63;1.43;;;17.30;99.90;;;;;;5027390;28;20204;-53
2022/09/17 12:35:30;;;;;;;6.17;1.20;;;16.90;99.90;;;;;;5028892;28;20283;-53
2022/09/17 12:38:34;;;;;;;10.47;1.63;;;16.50;99.90;;;;;;5024414;28;20236;-54
2022/09/17 12:41:28;;;;;;;6.27;1.40;;;16.30;79.70;;;;;;5026751;28;20562;-53
2022/09/17 12:44:12;;;;;;;8.70;1.30;;;16.80;36.10;;;;;;5031454;28;20536;-54
2022/09/17 12:47:04;;;;;;;5.97;0.97;;;17.30;1.00;;;;;;5027520;28;20210;-54
2022/09/17 12:49:42;;;;;;;3.03;0.77;;;17.50;1.00;;;;;;5031548;28;20354;-53
2022/09/17 12:52:52;;;;;;;1.30;0.50;;;17.50;1.00;;;;;;5023273;28;20294;-53
2022/09/17 12:55:35;;;;;;;4.67;0.97;;;17.30;1.00;;;;;;5028507;28;20212;-53
2022/09/17 12:58:10;;;;;;;2.77;1.00;;;17.50;1.00;;;;;;5030709;28;20199;-54
2022/09/17 13:00:47;;;;;;;5.43;1.10;;;17.80;1.00;;;;;;5023605;28;20210;-53
2022/09/17 13:03:19;;;;;;;4.77;0.80;;;17.80;1.00;;;;;;5027428;28;20200;-53
2022/09/17 13:06:23;;;;;;;5.17;1.13;;;18.00;1.00;;;;;;5029257;28;20236;-53
2022/09/17 13:09:15;;;;;;;8.10;1.03;;;18.00;1.00;;;;;;5028258;28;20805;-54
2022/09/17 13:12:06;;;;;;;4.50;1.40;;;18.20;1.00;;;;;;5027404;28;20196;-54
2022/09/17 13:14:55;;;;;;;4.53;1.10;;;17.70;1.00;;;;;;5027935;28;20206;-53
2022/09/17 13:17:34;;;;;;;5.33;1.00;;;17.50;1.00;;;;;;5025164;28;20254;-54
2022/09/17 13:20:15;;;;;;;4.60;1.10;;;17.20;1.00;;;;;;5027723;28;20215;-54
2022/09/17 13:22:47;;;;;;;8.90;1.10;;;17.30;1.00;;;;;;5029636;28;20353;-53
2022/09/17 13:25:16;;;;;;;5.20;1.13;;;17.40;1.00;;;;;;5025397;28;20259;-58
2022/09/17 13:27:44;;;;;;;8.77;0.80;;;17.50;1.00;;;;;;5028328;28;20555;-53
2022/09/17 13:30:14;;;;;;;5.57;1.00;;;17.20;1.00;;;;;;5026391;28;20737;-53
2022/09/17 13:32:42;;;;;;;5.37;1.03;;;17.20;1.00;;;;;;5026437;28;20734;-52
2022/09/17 13:35:09;;;;;;;8.23;1.33;;;17.00;1.00;;;;;;5021739;28;20624;-53